createdAt,value
2019-01-30T00:01:31.773Z,1.50
2019-01-30T00:04:01.414Z,1.23
2019-01-30T00:06:31.049Z,1.30
2019-01-30T00:09:00.781Z,1.27
2019-01-30T00:11:30.439Z,1.30
2019-01-30T00:14:00.072Z,1.50
2019-01-30T00:16:29.782Z,1.40
2019-01-30T00:18:59.495Z,1.40
2019-01-30T00:21:29.134Z,1.50
2019-01-30T00:23:58.786Z,1.40
2019-01-30T00:26:28.420Z,1.40
2019-01-30T00:28:58.140Z,1.50
2019-01-30T00:31:27.814Z,1.40
2019-01-30T00:33:57.443Z,1.27
2019-01-30T00:36:27.100Z,1.33
2019-01-30T00:38:56.788Z,1.60
2019-01-30T00:41:26.448Z,1.43
2019-01-30T00:43:56.096Z,1.60
2019-01-30T00:46:25.888Z,1.20
2019-01-30T00:48:56.140Z,1.23
2019-01-30T00:51:25.803Z,1.47
2019-01-30T00:53:55.447Z,1.60
2019-01-30T00:56:25.124Z,1.27
2019-01-30T00:58:54.836Z,1.30
2019-01-30T01:01:24.564Z,1.40
2019-01-30T01:03:54.220Z,1.57
2019-01-30T01:06:23.859Z,1.50
2019-01-30T01:08:53.605Z,1.50
2019-01-30T01:11:23.282Z,1.40
2019-01-30T01:13:52.934Z,1.20
2019-01-30T01:16:22.600Z,1.23
2019-01-30T01:18:52.355Z,1.13
2019-01-30T01:21:22.084Z,1.30
2019-01-30T01:23:51.725Z,1.33
2019-01-30T01:26:21.384Z,1.43
2019-01-30T01:28:51.090Z,1.47
2019-01-30T01:31:20.757Z,1.37
2019-01-30T01:33:50.408Z,1.23
2019-01-30T01:36:20.073Z,1.40
2019-01-30T01:38:49.815Z,1.10
2019-01-30T01:41:19.495Z,1.40
2019-01-30T01:43:49.169Z,1.30
2019-01-30T01:46:18.878Z,1.43
2019-01-30T01:48:48.669Z,1.43
2019-01-30T01:51:18.333Z,1.40
2019-01-30T01:53:47.965Z,1.30
2019-01-30T01:56:17.615Z,1.40
2019-01-30T01:58:47.304Z,1.27
2019-01-30T02:01:16.984Z,1.30
2019-01-30T02:03:46.681Z,1.17
2019-01-30T02:06:16.356Z,1.30
2019-01-30T02:08:46.033Z,1.20
2019-01-30T02:11:15.708Z,1.27
2019-01-30T02:13:45.411Z,1.20
2019-01-30T02:16:15.059Z,1.37
2019-01-30T02:18:44.887Z,1.33
2019-01-30T02:21:14.670Z,1.20
2019-01-30T02:23:44.323Z,1.20
2019-01-30T02:26:14.965Z,1.47
2019-01-30T02:28:44.736Z,1.10
2019-01-30T02:31:14.412Z,1.40
2019-01-30T02:33:44.059Z,1.20
2019-01-30T02:36:13.723Z,1.20
2019-01-30T02:38:43.484Z,1.10
2019-01-30T02:41:13.157Z,1.00
2019-01-30T02:43:42.791Z,1.17
2019-01-30T02:46:12.532Z,1.00
2019-01-30T02:48:42.324Z,1.10
2019-01-30T02:51:11.984Z,0.90
2019-01-30T02:53:41.696Z,1.10
2019-01-30T02:56:11.341Z,1.00
2019-01-30T02:58:41.063Z,0.93
2019-01-30T03:01:10.728Z,0.80
2019-01-30T03:03:40.635Z,1.10
2019-01-30T03:06:10.292Z,0.83
2019-01-30T03:08:39.992Z,0.97
2019-01-30T03:11:09.771Z,1.00
2019-01-30T03:13:39.452Z,0.80
2019-01-30T03:16:09.085Z,0.87
2019-01-30T03:18:38.844Z,1.00
2019-01-30T03:21:08.824Z,0.60
2019-01-30T03:23:38.494Z,0.53
2019-01-30T03:26:08.133Z,0.80
2019-01-30T03:28:37.890Z,0.70
2019-01-30T03:31:17.598Z,0.70
2019-01-30T03:33:38.870Z,0.77
2019-01-30T03:36:08.503Z,0.70
2019-01-30T03:38:38.252Z,0.80
2019-01-30T03:41:07.898Z,0.80
2019-01-30T03:43:37.537Z,0.80
2019-01-30T03:46:07.243Z,0.73
2019-01-30T03:48:37.000Z,0.70
2019-01-30T03:51:06.664Z,0.70
2019-01-30T03:53:36.308Z,0.60
2019-01-30T03:56:05.982Z,0.70
2019-01-30T03:58:35.740Z,0.67
2019-01-30T04:01:05.407Z,0.70
2019-01-30T04:03:35.123Z,0.60
2019-01-30T04:06:04.788Z,0.70
2019-01-30T04:08:34.472Z,0.70
2019-01-30T04:11:04.140Z,0.63
2019-01-30T04:13:33.818Z,0.70
2019-01-30T04:16:03.455Z,0.60
2019-01-30T04:18:33.215Z,0.40
2019-01-30T04:21:02.929Z,0.83
2019-01-30T04:23:32.598Z,0.73
2019-01-30T04:26:02.268Z,0.60
2019-01-30T04:28:31.939Z,0.50
2019-01-30T04:31:01.581Z,0.70
2019-01-30T04:33:31.222Z,0.60
2019-01-30T04:36:00.881Z,0.50
2019-01-30T04:38:30.576Z,0.60
2019-01-30T04:41:00.248Z,0.80
2019-01-30T04:43:29.911Z,0.70
2019-01-30T04:45:59.568Z,0.50
2019-01-30T04:48:29.347Z,0.67
2019-01-30T04:50:59.108Z,0.70
2019-01-30T04:53:28.768Z,0.60
2019-01-30T04:55:58.407Z,0.60
2019-01-30T04:58:28.193Z,0.50
2019-01-30T05:00:57.840Z,0.57
2019-01-30T05:03:27.509Z,0.60
2019-01-30T05:05:57.222Z,0.50
2019-01-30T05:08:26.895Z,0.60
2019-01-30T05:10:56.572Z,0.67
2019-01-30T05:13:26.208Z,0.60
2019-01-30T05:15:55.850Z,0.90
2019-01-30T05:18:25.531Z,0.70
2019-01-30T05:20:55.208Z,0.73
2019-01-30T05:23:25.052Z,0.83
2019-01-30T05:25:54.748Z,0.70
2019-01-30T05:28:24.606Z,0.87
2019-01-30T05:30:54.353Z,1.37
2019-01-30T05:33:24.137Z,1.10
2019-01-30T05:35:53.824Z,0.93
2019-01-30T05:38:23.600Z,0.70
2019-01-30T05:40:53.314Z,0.70
2019-01-30T05:43:23.016Z,0.90
2019-01-30T05:45:52.679Z,1.10
2019-01-30T05:48:22.436Z,1.00
2019-01-30T05:50:52.129Z,1.20
2019-01-30T05:53:21.918Z,1.00
2019-01-30T05:55:51.623Z,0.77
2019-01-30T05:58:21.308Z,1.43
2019-01-30T06:00:50.986Z,1.07
2019-01-30T06:03:20.648Z,0.97
2019-01-30T06:05:50.295Z,1.10
2019-01-30T06:08:20.000Z,0.63
2019-01-30T06:10:49.643Z,1.10
2019-01-30T06:13:19.287Z,3.00
2019-01-30T06:15:48.928Z,2.50
2019-01-30T06:18:18.705Z,1.90
2019-01-30T06:20:48.414Z,1.37
2019-01-30T06:23:18.059Z,1.30
2019-01-30T06:25:47.731Z,1.40
2019-01-30T06:28:17.376Z,1.40
2019-01-30T06:30:47.079Z,1.40
2019-01-30T06:33:16.737Z,1.43
2019-01-30T06:35:46.401Z,1.67
2019-01-30T06:38:16.052Z,1.60
2019-01-30T06:40:45.714Z,1.80
2019-01-30T06:43:15.395Z,1.50
2019-01-30T06:45:45.103Z,1.77
2019-01-30T06:48:15.267Z,1.40
2019-01-30T06:50:45.071Z,1.30
2019-01-30T06:53:14.765Z,1.60
2019-01-30T06:55:44.423Z,1.20
2019-01-30T06:58:14.647Z,1.03
2019-01-30T07:00:44.263Z,1.40
2019-01-30T07:03:13.933Z,1.30
2019-01-30T07:05:43.589Z,1.40
2019-01-30T07:08:13.272Z,1.67
2019-01-30T07:10:43.126Z,1.00
2019-01-30T07:13:12.924Z,1.10
2019-01-30T07:15:42.664Z,1.00
2019-01-30T07:18:12.509Z,1.20
2019-01-30T07:20:42.233Z,1.03
2019-01-30T07:23:12.100Z,1.20
2019-01-30T07:25:41.800Z,0.90
2019-01-30T07:28:12.028Z,1.10
2019-01-30T07:30:41.732Z,0.90
2019-01-30T07:33:11.438Z,1.00
2019-01-30T07:35:41.128Z,1.00
2019-01-30T07:38:10.872Z,0.90
2019-01-30T07:40:40.499Z,1.00
2019-01-30T07:43:10.238Z,0.90
2019-01-30T07:45:40.082Z,0.90
2019-01-30T07:48:09.845Z,0.77
2019-01-30T07:50:39.620Z,0.70
2019-01-30T07:53:09.364Z,0.90
2019-01-30T07:55:39.098Z,0.80
2019-01-30T07:58:08.912Z,0.77
2019-01-30T08:00:38.693Z,0.97
2019-01-30T08:03:08.366Z,0.73
2019-01-30T08:05:38.092Z,0.90
2019-01-30T08:08:07.952Z,0.60
2019-01-30T08:10:37.682Z,0.80
2019-01-30T08:13:07.410Z,0.90
2019-01-30T08:15:37.209Z,0.70
2019-01-30T08:18:07.014Z,0.97
2019-01-30T08:20:36.781Z,1.13
2019-01-30T08:23:06.919Z,1.20
2019-01-30T08:25:36.700Z,0.90
2019-01-30T08:28:06.472Z,1.20
2019-01-30T08:30:36.420Z,0.90
2019-01-30T08:33:06.183Z,0.80
2019-01-30T08:35:35.856Z,0.80
2019-01-30T08:38:05.749Z,0.80
2019-01-30T08:40:35.563Z,0.80
2019-01-30T08:43:05.316Z,0.90
2019-01-30T08:45:35.007Z,0.77
2019-01-30T08:48:05.053Z,0.80
2019-01-30T08:50:34.803Z,0.90
2019-01-30T08:53:04.622Z,0.83
2019-01-30T08:55:34.355Z,1.03
2019-01-30T08:58:04.035Z,0.90
2019-01-30T09:00:33.754Z,0.90
2019-01-30T09:03:03.455Z,0.70
2019-01-30T09:05:33.170Z,1.00
2019-01-30T09:08:02.909Z,1.00
2019-01-30T09:10:32.764Z,0.80
2019-01-30T09:13:02.516Z,0.90
2019-01-30T09:15:32.312Z,0.77
2019-01-30T09:18:02.168Z,0.83
2019-01-30T09:20:32.013Z,0.80
2019-01-30T09:23:01.833Z,0.97
2019-01-30T09:25:31.667Z,1.20
2019-01-30T09:28:02.236Z,1.10
2019-01-30T09:30:34.651Z,1.30
2019-01-30T09:33:04.495Z,1.00
2019-01-30T09:35:34.344Z,1.03
2019-01-30T09:38:04.012Z,1.17
2019-01-30T09:40:33.890Z,1.10
2019-01-30T09:43:03.556Z,1.20
2019-01-30T09:45:33.271Z,1.00
2019-01-30T09:48:02.992Z,1.00
2019-01-30T09:50:34.206Z,1.00
2019-01-30T09:53:04.060Z,1.00
2019-01-30T09:55:33.759Z,0.83
2019-01-30T09:58:03.440Z,1.00
2019-01-30T10:00:35.127Z,0.80
2019-01-30T10:03:04.898Z,0.87
2019-01-30T10:05:34.705Z,0.77
2019-01-30T10:08:04.352Z,0.97
2019-01-30T10:10:36.021Z,0.73
2019-01-30T10:13:06.323Z,0.80
2019-01-30T10:15:38.008Z,0.83
2019-01-30T10:18:08.174Z,0.90
2019-01-30T10:20:38.757Z,0.93
2019-01-30T10:23:08.820Z,0.70
2019-01-30T10:25:38.497Z,0.93
2019-01-30T10:28:16.256Z,0.83
2019-01-30T10:30:41.228Z,0.97
2019-01-30T10:33:10.936Z,0.90
2019-01-30T10:35:40.580Z,1.00
2019-01-30T10:38:10.263Z,0.83
2019-01-30T10:40:39.967Z,0.80
2019-01-30T10:43:09.714Z,0.70
2019-01-30T10:45:39.419Z,1.00
2019-01-30T10:48:09.104Z,1.20
2019-01-30T10:50:38.888Z,0.97
2019-01-30T10:53:08.591Z,0.90
2019-01-30T10:55:38.335Z,1.10
2019-01-30T10:58:10.300Z,1.03
2019-01-30T11:00:45.270Z,0.90
2019-01-30T11:03:14.862Z,0.90
2019-01-30T11:05:44.664Z,0.77
2019-01-30T11:08:14.407Z,0.90
2019-01-30T11:10:44.144Z,0.97
2019-01-30T11:13:13.962Z,0.80
2019-01-30T11:15:43.764Z,0.90
2019-01-30T11:18:15.402Z,0.90
2019-01-30T11:20:45.089Z,0.60
2019-01-30T11:23:14.800Z,0.80
2019-01-30T11:25:46.908Z,0.80
2019-01-30T11:28:16.925Z,0.70
2019-01-30T11:30:46.634Z,0.70
2019-01-30T11:33:16.733Z,0.80
2019-01-30T11:35:46.750Z,0.70
2019-01-30T11:38:16.444Z,0.90
2019-01-30T11:40:46.116Z,1.10
2019-01-30T11:43:15.757Z,0.90
2019-01-30T11:45:46.203Z,0.90
2019-01-30T11:48:15.903Z,0.90
2019-01-30T11:50:45.735Z,1.00
2019-01-30T11:53:15.871Z,0.83
2019-01-30T11:55:45.578Z,0.90
2019-01-30T11:58:15.349Z,1.00
2019-01-30T12:00:59.643Z,0.77
2019-01-30T12:03:29.341Z,0.90
2019-01-30T12:05:59.213Z,1.00
2019-01-30T12:08:29.382Z,0.97
2019-01-30T12:10:59.074Z,0.90
2019-01-30T12:13:28.880Z,0.80
2019-01-30T12:15:58.618Z,1.20
2019-01-30T12:18:28.411Z,0.80
2019-01-30T12:20:58.108Z,0.90
2019-01-30T12:23:27.784Z,0.73
2019-01-30T12:25:57.531Z,0.70
2019-01-30T12:28:27.334Z,1.00
2019-01-30T12:30:57.109Z,0.73
2019-01-30T12:33:26.842Z,0.83
2019-01-30T12:35:56.588Z,0.80
2019-01-30T12:38:26.345Z,1.00
2019-01-30T12:40:56.047Z,0.80
2019-01-30T12:43:25.770Z,0.70
2019-01-30T12:45:55.548Z,0.80
2019-01-30T12:48:25.292Z,0.70
2019-01-30T12:50:55.664Z,0.80
2019-01-30T12:53:25.455Z,0.70
2019-01-30T12:55:55.155Z,0.97
2019-01-30T12:58:24.958Z,0.67
2019-01-30T13:00:54.604Z,0.80
2019-01-30T13:03:24.257Z,0.87
2019-01-30T13:05:53.912Z,0.60
2019-01-30T13:08:23.716Z,0.63
2019-01-30T13:10:53.469Z,0.90
2019-01-30T13:13:23.250Z,0.63
2019-01-30T13:15:53.047Z,0.67
2019-01-30T13:18:22.926Z,0.90
2019-01-30T13:20:52.680Z,0.70
2019-01-30T13:23:22.405Z,0.80
2019-01-30T13:25:52.117Z,0.90
2019-01-30T13:28:22.975Z,0.63
2019-01-30T13:30:52.673Z,0.80
2019-01-30T13:33:23.185Z,0.77
2019-01-30T13:35:52.877Z,0.53
2019-01-30T13:38:22.674Z,0.80
2019-01-30T13:40:52.365Z,0.80
2019-01-30T13:43:22.533Z,0.80
2019-01-30T13:45:52.236Z,0.70
2019-01-30T13:48:22.374Z,0.50
2019-01-30T13:50:52.140Z,0.53
2019-01-30T13:53:22.012Z,0.53
2019-01-30T13:55:51.793Z,0.70
2019-01-30T13:58:22.507Z,0.60
2019-01-30T14:00:52.283Z,0.60
2019-01-30T14:03:22.109Z,0.70
2019-01-30T14:05:51.797Z,0.77
2019-01-30T14:08:21.595Z,0.70
2019-01-30T14:10:51.209Z,0.70
2019-01-30T14:13:20.928Z,0.60
2019-01-30T14:15:50.687Z,0.60
2019-01-30T14:18:20.524Z,0.73
2019-01-30T14:20:50.215Z,0.50
2019-01-30T14:23:19.912Z,0.60
2019-01-30T14:25:49.746Z,0.57
2019-01-30T14:28:19.391Z,0.63
2019-01-30T14:30:49.139Z,0.60
2019-01-30T14:33:18.927Z,0.53
2019-01-30T14:35:48.968Z,0.73
2019-01-30T14:38:18.704Z,0.80
2019-01-30T14:40:48.406Z,0.60
2019-01-30T14:43:18.165Z,0.67
2019-01-30T14:45:47.851Z,0.60
2019-01-30T14:48:17.504Z,0.60
2019-01-30T14:50:47.222Z,0.70
2019-01-30T14:53:17.119Z,0.50
2019-01-30T14:55:47.076Z,0.60
2019-01-30T14:58:16.812Z,0.67
2019-01-30T15:00:46.550Z,0.60
2019-01-30T15:03:16.243Z,0.80
2019-01-30T15:05:46.009Z,0.60
2019-01-30T15:08:15.662Z,0.50
2019-01-30T15:10:45.415Z,0.60
2019-01-30T15:13:15.098Z,0.50
2019-01-30T15:15:44.728Z,0.60
2019-01-30T15:18:14.537Z,0.50
2019-01-30T15:20:44.292Z,0.40
2019-01-30T15:23:14.570Z,0.70
2019-01-30T15:25:44.325Z,0.60
2019-01-30T15:28:14.403Z,0.70
2019-01-30T15:30:46.508Z,0.60
2019-01-30T15:33:16.263Z,0.60
2019-01-30T15:35:46.160Z,0.50
2019-01-30T15:38:20.727Z,0.67
2019-01-30T15:40:50.055Z,0.70
2019-01-30T15:43:19.782Z,0.57
2019-01-30T15:45:49.648Z,0.50
2019-01-30T15:48:19.744Z,0.80
2019-01-30T15:50:49.602Z,0.60
2019-01-30T15:53:24.251Z,1.00
2019-01-30T15:55:53.992Z,0.50
2019-01-30T15:58:23.750Z,0.80
2019-01-30T16:01:00.302Z,0.60
2019-01-30T16:03:30.003Z,0.70
2019-01-30T16:05:59.851Z,0.77
2019-01-30T16:08:29.628Z,0.70
2019-01-30T16:10:59.301Z,0.50
2019-01-30T16:13:29.006Z,0.50
2019-01-30T16:16:01.118Z,0.63
2019-01-30T16:18:30.991Z,0.70
2019-01-30T16:21:00.684Z,0.50
2019-01-30T16:23:30.349Z,0.50
2019-01-30T16:26:00.189Z,0.70
2019-01-30T16:28:30.000Z,0.53
2019-01-30T16:30:59.830Z,0.60
2019-01-30T16:33:29.571Z,0.60
2019-01-30T16:35:59.285Z,0.77
2019-01-30T16:38:29.017Z,1.57
2019-01-30T16:40:58.655Z,1.17
2019-01-30T16:43:28.367Z,2.70
2019-01-30T16:45:58.192Z,2.20
2019-01-30T16:48:30.784Z,1.87
2019-01-30T16:50:59.450Z,2.00
2019-01-30T16:53:29.167Z,1.47
2019-01-30T16:55:58.961Z,2.10
2019-01-30T16:58:28.938Z,2.27
2019-01-30T17:00:58.695Z,4.60
2019-01-30T17:03:28.405Z,5.53
2019-01-30T17:06:07.213Z,5.70
2019-01-30T17:08:29.679Z,5.50
2019-01-30T17:10:59.456Z,5.73
2019-01-30T17:13:29.171Z,5.03
2019-01-30T17:15:58.923Z,13.43
2019-01-30T17:18:28.747Z,8.17
2019-01-30T17:20:58.693Z,7.13
2019-01-30T17:23:28.458Z,6.17
2019-01-30T17:25:58.248Z,5.30
2019-01-30T17:28:28.059Z,5.87
2019-01-30T17:31:24.415Z,4.70
2019-01-30T17:33:54.176Z,4.13
2019-01-30T17:36:23.934Z,4.07
2019-01-30T17:38:53.751Z,4.13
2019-01-30T17:41:23.414Z,3.67
2019-01-30T17:43:53.156Z,3.27
2019-01-30T17:46:22.888Z,7.97
2019-01-30T17:48:52.687Z,10.03
2019-01-30T17:51:22.417Z,8.00
2019-01-30T17:53:52.612Z,8.40
2019-01-30T17:56:22.383Z,7.27
2019-01-30T17:58:52.154Z,6.43
2019-01-30T18:01:21.849Z,5.80
2019-01-30T18:03:51.526Z,6.37
2019-01-30T18:06:29.597Z,6.80
2019-01-30T18:08:52.759Z,6.40
2019-01-30T18:11:22.692Z,5.47
2019-01-30T18:13:52.432Z,5.03
2019-01-30T18:16:22.111Z,5.20
2019-01-30T18:18:51.895Z,4.97
2019-01-30T18:21:21.703Z,4.90
2019-01-30T18:23:51.553Z,4.83
2019-01-30T18:26:21.327Z,4.40
2019-01-30T18:28:51.093Z,3.90
2019-01-30T18:31:20.832Z,4.83
2019-01-30T18:33:53.892Z,4.07
2019-01-30T18:36:23.108Z,3.77
2019-01-30T18:38:52.890Z,3.60
2019-01-30T18:41:22.741Z,3.40
2019-01-30T18:43:52.407Z,3.50
2019-01-30T18:46:22.135Z,3.10
2019-01-30T18:48:52.860Z,3.10
2019-01-30T18:51:22.596Z,2.80
2019-01-30T18:53:53.313Z,2.77
2019-01-30T18:56:23.448Z,3.27
2019-01-30T18:58:55.172Z,2.50
2019-01-30T19:01:25.085Z,2.40
2019-01-30T19:03:54.804Z,2.50
2019-01-30T19:06:24.472Z,2.27
2019-01-30T19:08:54.879Z,2.00
2019-01-30T19:11:24.743Z,2.40
2019-01-30T19:13:55.606Z,3.60
2019-01-30T19:16:25.767Z,5.50
2019-01-30T19:18:55.594Z,7.53
2019-01-30T19:21:25.351Z,7.23
2019-01-30T19:23:55.135Z,7.43
2019-01-30T19:26:24.823Z,7.37
2019-01-30T19:28:55.047Z,8.73
2019-01-30T19:31:24.780Z,7.93
2019-01-30T19:33:54.544Z,7.57
2019-01-30T19:36:24.318Z,7.60
2019-01-30T19:38:54.127Z,7.50
2019-01-30T19:41:23.836Z,6.80
2019-01-30T19:43:53.738Z,7.00
2019-01-30T19:46:23.447Z,6.47
2019-01-30T19:48:53.240Z,6.37
2019-01-30T19:51:22.998Z,6.50
2019-01-30T19:53:54.173Z,6.10
2019-01-30T19:56:24.230Z,5.97
2019-01-30T19:58:54.152Z,6.17
2019-01-30T20:01:23.928Z,6.23
2019-01-30T20:03:53.644Z,6.03
2019-01-30T20:06:23.507Z,5.77
2019-01-30T20:08:53.175Z,5.80
2019-01-30T20:11:22.960Z,5.90
2019-01-30T20:13:52.705Z,5.97
2019-01-30T20:16:22.547Z,5.43
2019-01-30T20:18:52.388Z,6.10
2019-01-30T20:21:22.083Z,5.50
2019-01-30T20:23:51.911Z,5.90
2019-01-30T20:26:21.839Z,5.60
2019-01-30T20:28:53.000Z,5.97
2019-01-30T20:31:22.953Z,5.17
2019-01-30T20:33:52.980Z,4.63
2019-01-30T20:36:22.913Z,4.73
2019-01-30T20:38:52.977Z,5.07
2019-01-30T20:41:22.880Z,4.17
2019-01-30T20:43:52.753Z,4.57
2019-01-30T20:46:22.768Z,4.50
2019-01-30T20:48:52.700Z,4.30
2019-01-30T20:51:22.360Z,4.17
2019-01-30T20:53:52.001Z,6.80
2019-01-30T20:56:21.713Z,9.93
2019-01-30T20:58:51.464Z,8.97
2019-01-30T21:01:21.128Z,7.60
2019-01-30T21:03:50.783Z,6.93
2019-01-30T21:06:20.427Z,6.23
2019-01-30T21:08:51.105Z,5.93
2019-01-30T21:11:20.754Z,5.37
2019-01-30T21:13:50.732Z,5.27
2019-01-30T21:16:20.380Z,5.20
2019-01-30T21:18:50.071Z,4.50
2019-01-30T21:21:19.738Z,4.77
2019-01-30T21:23:49.409Z,4.97
2019-01-30T21:26:19.054Z,4.43
2019-01-30T21:28:48.759Z,3.80
2019-01-30T21:31:18.435Z,3.90
2019-01-30T21:33:48.076Z,4.20
2019-01-30T21:36:17.732Z,3.50
2019-01-30T21:38:47.433Z,3.33
2019-01-30T21:41:17.108Z,3.60
2019-01-30T21:43:46.759Z,3.17
2019-01-30T21:46:16.420Z,3.37
2019-01-30T21:48:46.180Z,2.83
2019-01-30T21:51:15.839Z,3.67
2019-01-30T21:53:45.497Z,3.17
2019-01-30T21:56:15.231Z,2.83
2019-01-30T21:58:44.918Z,3.07
2019-01-30T22:01:14.579Z,2.50
2019-01-30T22:03:44.385Z,2.53
2019-01-30T22:06:14.042Z,2.50
2019-01-30T22:08:43.746Z,2.77
2019-01-30T22:11:13.426Z,2.40
2019-01-30T22:13:43.097Z,2.80
2019-01-30T22:16:12.743Z,2.53
2019-01-30T22:18:42.493Z,2.40
2019-01-30T22:21:12.158Z,2.20
2019-01-30T22:23:41.834Z,2.30
2019-01-30T22:26:11.473Z,2.43
2019-01-30T22:28:41.182Z,1.93
2019-01-30T22:31:10.826Z,2.27
2019-01-30T22:33:40.505Z,1.80
2019-01-30T22:36:10.158Z,2.27
2019-01-30T22:38:39.868Z,1.90
2019-01-30T22:41:09.532Z,1.80
2019-01-30T22:43:39.189Z,1.97
2019-01-30T22:46:08.847Z,1.80
2019-01-30T22:48:38.604Z,2.07
2019-01-30T22:51:08.264Z,1.77
2019-01-30T22:53:37.907Z,1.70
2019-01-30T22:56:07.657Z,1.70
2019-01-30T22:58:37.535Z,1.30
2019-01-30T23:01:24.792Z,1.80
2019-01-30T23:04:09.552Z,1.83
2019-01-30T23:07:12.943Z,1.50
2019-01-30T23:10:11.366Z,1.40
2019-01-30T23:13:19.959Z,1.37
2019-01-30T23:16:14.376Z,1.20
2019-01-30T23:19:31.626Z,1.30
2019-01-30T23:22:35.686Z,1.20
2019-01-30T23:25:22.291Z,1.30
2019-01-30T23:28:05.726Z,1.10
2019-01-30T23:31:08.305Z,1.33
2019-01-30T23:34:16.106Z,1.10
2019-01-30T23:37:22.989Z,0.97
2019-01-30T23:40:18.637Z,1.30
2019-01-30T23:43:21.527Z,1.20
2019-01-30T23:46:22.334Z,1.00
2019-01-30T23:49:13.341Z,1.10
2019-01-30T23:52:05.159Z,1.30
2019-01-30T23:54:55.567Z,1.17
2019-01-30T23:57:57.753Z,1.10
